Pleasant Grove, California
Current Conditions -  °F | °C
As of 3:55 PM on Friday 28 Nov 2014 (Local Time) from KLHM Reporting Station
Clear Clear  
Wind Chill: 17°   Ceiling: Unl
Heat Index: 17°   Visibility: 10mi
Dew Point:   Wind: 5mph
Humidity: 45%   Direction: 200°SSW
Pressure: 29.89"   Gusts: NA
Location:  38.82°N, 121.48°W
Report Text: KLHM 282355Z AUTO 20004KT 10SM CLR 17/05 A2989 RMK AO1
Loading
Personal Weather Stations






























Interactive Weather Map New forecast layout! Learn more

10-Day Weather Forecast

Advertisements
Track Severe Weather on mobile